Time;durP1;ratioP1;P1;durP2;ratioP2;P2;SDS_P1;SDS_P2;PMS_P1;PMS_P2;Temp;Humidity;BMP_temperature;BMP_pressure;BME280_temperature;BME280_humidity;BME280_pressure;Samples;Min_cycle;Max_cycle;Signal;HPM_P1;HPM_P2
2023/11/28 00:01:46;;;;;;;0.70;0.60;;;5.50;99.90;;;;;;5036625;28;20183;-84
2023/11/28 00:04:11;;;;;;;0.70;0.55;;;5.40;99.90;;;;;;5048455;28;20214;-84
2023/11/28 00:06:38;;;;;;;0.70;0.50;;;6.00;99.90;;;;;;5031499;28;20187;-84
2023/11/28 00:09:03;;;;;;;0.93;0.50;;;5.00;99.90;;;;;;5032290;28;20190;-84
2023/11/28 00:11:29;;;;;;;0.97;0.60;;;5.70;99.90;;;;;;5031985;28;20179;-83
2023/11/28 00:13:55;;;;;;;0.60;0.50;;;;;;;;;;5033078;28;20230;-84
2023/11/28 00:16:21;;;;;;;0.80;0.67;;;;;;;;;;5034769;28;20174;-84
2023/11/28 00:18:48;;;;;;;0.80;0.63;;;5.40;99.90;;;;;;5032515;28;20464;-83
2023/11/28 00:21:14;;;;;;;0.88;0.68;;;5.30;99.90;;;;;;5032035;28;20191;-83
2023/11/28 00:23:39;;;;;;;0.70;0.60;;;5.50;99.90;;;;;;5030294;28;20211;-83
2023/11/28 00:26:05;;;;;;;1.00;0.90;;;5.30;99.90;;;;;;5033726;28;20194;-82
2023/11/28 00:28:31;;;;;;;0.70;0.57;;;5.40;99.90;;;;;;5028268;28;20186;-84
2023/11/28 00:30:56;;;;;;;0.60;0.50;;;5.30;99.90;;;;;;5032070;28;20293;-83
2023/11/28 00:33:22;;;;;;;0.97;0.70;;;5.30;99.90;;;;;;5022874;28;20213;-83
2023/11/28 00:35:48;;;;;;;0.60;0.47;;;5.30;99.90;;;;;;5032833;28;20201;-83
2023/11/28 00:38:13;;;;;;;0.90;0.70;;;5.50;99.90;;;;;;5055639;28;20190;-83
2023/11/28 00:40:44;;;;;;;0.73;0.67;;;5.60;99.90;;;;;;5032595;28;20194;-83
2023/11/28 00:43:10;;;;;;;0.93;0.80;;;5.50;99.90;;;;;;5034214;28;20198;-83
2023/11/28 00:45:36;;;;;;;1.00;0.60;;;5.40;99.90;;;;;;5049022;28;20194;-83
2023/11/28 00:48:03;;;;;;;1.33;0.80;;;5.40;99.90;;;;;;5033121;28;20179;-84
2023/11/28 00:50:28;;;;;;;0.77;0.60;;;5.40;99.90;;;;;;5032762;28;20191;-84
2023/11/28 00:52:54;;;;;;;0.60;0.50;;;5.50;99.90;;;;;;5031491;28;20224;-84
2023/11/28 00:55:19;;;;;;;3.50;0.80;;;5.40;99.90;;;;;;5030462;28;20213;-84
2023/11/28 00:57:45;;;;;;;0.70;0.60;;;5.60;99.90;;;;;;5028162;28;20186;-84
2023/11/28 01:00:13;;;;;;;0.60;0.60;;;5.80;99.90;;;;;;5039279;28;20212;-84
2023/11/28 01:02:41;;;;;;;0.90;0.60;;;5.60;99.90;;;;;;5032838;28;20178;-83
2023/11/28 01:05:11;;;;;;;1.80;0.80;;;5.80;99.90;;;;;;5030667;28;20233;-84
2023/11/28 01:07:38;;;;;;;0.85;0.60;;;5.60;99.90;;;;;;5026319;28;20208;-83
2023/11/28 01:10:04;;;;;;;0.80;0.60;;;5.60;99.90;;;;;;5009318;28;20648;-84
2023/11/28 01:12:30;;;;;;;1.20;0.60;;;5.70;99.90;;;;;;5031984;28;20186;-83
2023/11/28 01:14:56;;;;;;;0.80;0.60;;;5.80;99.90;;;;;;5034176;28;20218;-84
2023/11/28 01:17:22;;;;;;;1.10;0.70;;;5.80;99.90;;;;;;5037801;28;20198;-84
2023/11/28 01:19:48;;;;;;;0.83;0.67;;;6.00;99.90;;;;;;5032594;28;20211;-84
2023/11/28 01:22:13;;;;;;;0.70;0.60;;;5.80;99.90;;;;;;5030210;28;20225;-84
2023/11/28 01:24:40;;;;;;;0.60;0.50;;;6.00;99.90;;;;;;5032293;28;20286;-84
2023/11/28 01:27:05;;;;;;;0.60;0.55;;;6.00;99.90;;;;;;5031624;28;20213;-83
2023/11/28 01:29:31;;;;;;;1.07;0.63;;;7.40;99.90;;;;;;5032541;28;20187;-83
2023/11/28 01:31:57;;;;;;;0.67;0.60;;;6.70;99.90;;;;;;5034870;28;20469;-83
2023/11/28 01:34:22;;;;;;;0.93;0.83;;;5.70;99.90;;;;;;5039815;28;20214;-84
2023/11/28 01:36:48;;;;;;;0.60;0.50;;;5.90;99.90;;;;;;5036726;28;20178;-84
2023/11/28 01:39:15;;;;;;;1.70;0.65;;;;;;;;;;5037987;28;20199;-83
2023/11/28 01:41:41;;;;;;;0.80;0.60;;;6.00;99.90;;;;;;5034956;28;20192;-83
2023/11/28 01:44:07;;;;;;;0.60;0.50;;;8.90;99.90;;;;;;5040707;28;20195;-84
2023/11/28 01:46:34;;;;;;;0.80;0.60;;;;;;;;;;5037696;28;20178;-84
2023/11/28 01:49:00;;;;;;;0.60;0.50;;;;;;;;;;5037634;28;20163;-83
2023/11/28 01:51:26;;;;;;;0.85;0.80;;;;;;;;;;5037653;28;20179;-83
2023/11/28 01:53:56;;;;;;;0.70;0.70;;;6.10;99.90;;;;;;5037289;28;20234;-84
2023/11/28 01:56:23;;;;;;;0.70;0.50;;;5.90;99.90;;;;;;5038872;28;20194;-84
2023/11/28 01:58:50;;;;;;;0.70;0.60;;;6.20;99.90;;;;;;5039056;28;20216;-84
2023/11/28 02:01:17;;;;;;;0.60;0.60;;;6.20;99.90;;;;;;5041237;28;20210;-84
2023/11/28 02:03:43;;;;;;;1.27;0.60;;;6.20;99.90;;;;;;5034471;28;20199;-84
2023/11/28 02:06:09;;;;;;;0.60;0.50;;;6.00;99.90;;;;;;5031762;28;20193;-83
2023/11/28 02:08:35;;;;;;;1.05;0.60;;;6.10;99.90;;;;;;5018205;28;20182;-84
2023/11/28 02:11:02;;;;;;;0.60;0.60;;;6.10;99.90;;;;;;5035314;28;20214;-83
2023/11/28 02:13:30;;;;;;;0.60;0.60;;;5.70;99.90;;;;;;5039194;28;20214;-84
2023/11/28 02:15:55;;;;;;;0.95;0.68;;;6.50;99.90;;;;;;5034194;28;20191;-84
2023/11/28 02:18:21;;;;;;;0.67;0.67;;;6.40;99.90;;;;;;5031062;28;20203;-84
2023/11/28 02:20:46;;;;;;;0.63;0.50;;;6.10;99.90;;;;;;5030822;28;20183;-84
2023/11/28 02:23:13;;;;;;;0.70;0.60;;;7.10;99.90;;;;;;5036788;28;20210;-84
2023/11/28 02:25:50;;;;;;;0.70;0.60;;;6.30;99.90;;;;;;5034913;28;20191;-84
2023/11/28 02:28:22;;;;;;;0.70;0.60;;;6.70;99.90;;;;;;5031897;28;20449;-84
2023/11/28 02:30:57;;;;;;;0.60;0.50;;;6.60;99.90;;;;;;5032843;28;20195;-84
2023/11/28 02:33:23;;;;;;;0.60;0.50;;;6.30;99.90;;;;;;5033974;28;20214;-84
2023/11/28 02:35:49;;;;;;;0.60;0.50;;;6.40;99.90;;;;;;5034676;28;20190;-84
2023/11/28 02:38:15;;;;;;;2.40;0.60;;;;;;;;;;5030355;28;20205;-83
2023/11/28 02:40:41;;;;;;;0.95;0.75;;;6.50;99.90;;;;;;5037533;28;20179;-84
2023/11/28 02:43:07;;;;;;;0.60;0.50;;;6.40;99.90;;;;;;5034054;28;20307;-83
2023/11/28 02:45:33;;;;;;;0.70;0.65;;;6.50;99.90;;;;;;5033986;28;20210;-83
2023/11/28 02:47:59;;;;;;;1.10;0.80;;;6.50;99.90;;;;;;5040583;28;20285;-83
2023/11/28 02:50:24;;;;;;;0.70;0.70;;;6.50;99.90;;;;;;5035435;28;20246;-83
2023/11/28 02:52:50;;;;;;;0.83;0.67;;;;;;;;;;5030539;28;20235;-83
2023/11/28 02:55:16;;;;;;;0.82;0.70;;;6.30;99.90;;;;;;5034139;28;20177;-83
2023/11/28 02:57:42;;;;;;;0.80;0.80;;;;;;;;;;5033555;28;20203;-83
2023/11/28 03:00:08;;;;;;;1.00;0.80;;;6.30;99.90;;;;;;5035722;28;20231;-84
2023/11/28 03:02:35;;;;;;;0.80;0.70;;;6.30;99.90;;;;;;5033268;28;20445;-83
2023/11/28 03:05:02;;;;;;;0.90;0.70;;;6.50;99.90;;;;;;5033770;28;20525;-84
2023/11/28 03:07:28;;;;;;;0.70;0.60;;;6.70;99.90;;;;;;5030791;28;20199;-84
2023/11/28 03:09:53;;;;;;;0.80;0.80;;;6.50;99.90;;;;;;5031307;28;20195;-84
2023/11/28 03:12:19;;;;;;;0.70;0.70;;;6.60;99.90;;;;;;5031586;28;20213;-84
2023/11/28 03:14:45;;;;;;;1.00;0.90;;;6.40;99.90;;;;;;5029260;28;20207;-84
2023/11/28 03:17:10;;;;;;;0.80;0.70;;;6.30;99.90;;;;;;5037684;28;20170;-84
2023/11/28 03:19:36;;;;;;;0.70;0.63;;;6.80;99.90;;;;;;5016797;28;20167;-84
2023/11/28 03:22:04;;;;;;;0.70;0.60;;;6.50;99.90;;;;;;5028919;28;20175;-84
2023/11/28 03:24:31;;;;;;;1.45;0.75;;;7.20;99.90;;;;;;5031271;28;20454;-84
2023/11/28 03:26:57;;;;;;;0.70;0.70;;;6.50;99.90;;;;;;5030063;28;20187;-84
2023/11/28 03:29:23;;;;;;;0.73;0.60;;;6.80;99.90;;;;;;5014311;28;20205;-84
2023/11/28 03:31:50;;;;;;;0.70;0.50;;;6.80;99.90;;;;;;5032243;28;20464;-84
2023/11/28 03:34:16;;;;;;;1.08;0.63;;;;;;;;;;5032059;28;20222;-84
2023/11/28 03:36:42;;;;;;;1.17;0.60;;;6.60;99.90;;;;;;5047830;22;20222;-83
2023/11/28 03:39:07;;;;;;;1.53;0.63;;;;;;;;;;5029542;28;20324;-83
2023/11/28 03:41:33;;;;;;;0.77;0.50;;;6.40;99.90;;;;;;5024291;28;20278;-83
2023/11/28 03:43:59;;;;;;;0.60;0.50;;;6.20;99.90;;;;;;5029588;28;20221;-83
2023/11/28 03:46:25;;;;;;;1.23;0.60;;;6.40;99.90;;;;;;5043972;28;20205;-83
2023/11/28 03:48:51;;;;;;;0.80;0.60;;;6.30;99.90;;;;;;5040042;28;20209;-83
2023/11/28 03:51:16;;;;;;;0.70;0.57;;;6.40;99.90;;;;;;5026596;28;20178;-83
2023/11/28 03:53:42;;;;;;;1.20;0.80;;;6.50;99.90;;;;;;5030748;28;20234;-83
2023/11/28 03:56:09;;;;;;;1.10;0.60;;;6.40;99.90;;;;;;5028666;28;20425;-83
2023/11/28 03:58:35;;;;;;;0.98;0.50;;;6.30;99.90;;;;;;5024306;28;20182;-83
2023/11/28 04:01:01;;;;;;;0.90;0.63;;;6.30;99.90;;;;;;5041304;28;20183;-83
2023/11/28 04:03:28;;;;;;;0.70;0.50;;;6.90;99.90;;;;;;5044273;28;20305;-85
2023/11/28 04:05:54;;;;;;;0.70;0.52;;;6.60;99.90;;;;;;5019210;28;20197;-85
2023/11/28 04:08:20;;;;;;;0.70;0.52;;;6.40;99.90;;;;;;5017243;28;20278;-85
2023/11/28 04:10:45;;;;;;;0.70;0.50;;;6.30;99.90;;;;;;5021648;28;20213;-84
2023/11/28 04:13:11;;;;;;;0.70;0.60;;;6.70;99.90;;;;;;5030548;28;20297;-84
2023/11/28 04:15:38;;;;;;;0.90;0.80;;;6.60;99.90;;;;;;5025627;28;20464;-85
2023/11/28 04:18:07;;;;;;;0.77;0.57;;;6.50;99.90;;;;;;5027412;28;20174;-84
2023/11/28 04:20:35;;;;;;;0.80;0.60;;;6.30;99.90;;;;;;5026634;28;20189;-85
2023/11/28 04:23:00;;;;;;;1.70;1.60;;;6.30;99.90;;;;;;5029744;28;20186;-84
2023/11/28 04:25:26;;;;;;;1.57;0.80;;;6.50;99.90;;;;;;5019099;28;20217;-85
2023/11/28 04:27:52;;;;;;;0.80;0.60;;;6.80;99.90;;;;;;5043239;28;20206;-86
2023/11/28 04:30:17;;;;;;;1.10;0.90;;;6.40;99.90;;;;;;5015306;28;20794;-87
2023/11/28 04:32:43;;;;;;;0.90;0.90;;;6.60;99.90;;;;;;5025187;28;20197;-86
2023/11/28 04:35:09;;;;;;;3.57;0.80;;;6.80;99.90;;;;;;5011683;28;20226;-86
2023/11/28 04:37:34;;;;;;;0.80;0.50;;;6.50;99.90;;;;;;5028717;28;20201;-86
2023/11/28 04:40:00;;;;;;;1.57;0.70;;;6.50;99.90;;;;;;5012360;28;20476;-86
2023/11/28 04:42:27;;;;;;;0.63;0.57;;;6.40;99.90;;;;;;5011390;28;21213;-86
2023/11/28 04:44:53;;;;;;;0.95;0.70;;;6.50;99.90;;;;;;5012809;28;20206;-86
2023/11/28 04:47:19;;;;;;;1.40;0.70;;;5.90;99.90;;;;;;5017590;28;20277;-86
2023/11/28 04:49:45;;;;;;;1.20;1.00;;;6.10;99.90;;;;;;5010955;28;20270;-86
2023/11/28 04:52:10;;;;;;;0.80;0.70;;;6.90;99.90;;;;;;5028947;28;20655;-86
2023/11/28 04:54:36;;;;;;;1.00;0.50;;;6.00;99.90;;;;;;5015697;28;20199;-86
2023/11/28 04:57:02;;;;;;;2.97;0.70;;;5.90;99.90;;;;;;5013383;28;20206;-86
2023/11/28 04:59:28;;;;;;;2.30;0.57;;;7.60;99.90;;;;;;5009376;28;20182;-86
2023/11/28 05:01:53;;;;;;;2.55;0.60;;;5.90;99.90;;;;;;5013170;28;20186;-86
2023/11/28 05:04:19;;;;;;;0.80;0.60;;;;;;;;;;5015194;28;20210;-86
2023/11/28 05:06:45;;;;;;;0.80;0.70;;;6.50;99.90;;;;;;5016132;28;20212;-86
2023/11/28 05:09:11;;;;;;;0.80;0.60;;;7.30;99.90;;;;;;5015150;28;20229;-86
2023/11/28 05:11:37;;;;;;;1.43;0.63;;;7.30;99.90;;;;;;5015870;28;20213;-88
2023/11/28 05:14:03;;;;;;;0.85;0.60;;;7.60;99.90;;;;;;5011458;28;20479;-88
2023/11/28 05:16:40;;;;;;;0.70;0.60;;;5.80;99.90;;;;;;5005336;28;20185;-90
2023/11/28 05:19:05;;;;;;;1.30;0.93;;;6.80;99.90;;;;;;5012020;28;20440;-87
2023/11/28 05:21:31;;;;;;;1.47;0.70;;;7.80;99.90;;;;;;5013826;28;20191;-87
2023/11/28 05:23:57;;;;;;;1.00;0.60;;;6.50;99.90;;;;;;5017393;28;20656;-88
2023/11/28 05:26:22;;;;;;;1.57;0.90;;;7.50;99.90;;;;;;5007233;28;20193;-87
2023/11/28 05:31:57;;;;;;;0.70;0.68;;;6.10;99.90;;;;;;4930611;29;20200;-88
2023/11/28 05:34:22;;;;;;;1.20;1.00;;;5.90;99.90;;;;;;5005347;28;20222;-88
2023/11/28 05:36:48;;;;;;;1.40;0.90;;;6.40;99.90;;;;;;5018410;28;20635;-88
2023/11/28 05:39:13;;;;;;;1.00;1.00;;;6.90;99.90;;;;;;5016961;28;20182;-88
2023/11/28 05:41:39;;;;;;;1.40;1.30;;;6.70;99.90;;;;;;5017018;28;20210;-86
2023/11/28 05:44:05;;;;;;;1.30;1.20;;;7.00;99.90;;;;;;5015575;28;20270;-88
2023/11/28 05:46:31;;;;;;;1.98;1.80;;;7.10;99.90;;;;;;5019210;28;20209;-88
2023/11/28 05:48:56;;;;;;;1.73;1.60;;;6.60;99.90;;;;;;5018291;28;20883;-88
2023/11/28 05:51:22;;;;;;;1.60;1.50;;;6.70;99.90;;;;;;5012841;28;20506;-88
2023/11/28 05:53:48;;;;;;;1.70;1.60;;;6.70;99.90;;;;;;5014375;28;20213;-88
2023/11/28 05:56:13;;;;;;;1.92;1.80;;;6.80;99.90;;;;;;5015220;28;20195;-88
2023/11/28 05:58:40;;;;;;;2.00;1.90;;;6.60;99.90;;;;;;5014745;28;20252;-88
2023/11/28 06:01:06;;;;;;;1.70;1.60;;;6.60;99.90;;;;;;5020551;28;20412;-88
2023/11/28 06:03:32;;;;;;;1.90;1.80;;;7.00;99.90;;;;;;5020989;28;20213;-89
2023/11/28 06:05:58;;;;;;;1.87;1.63;;;6.90;99.90;;;;;;5020409;28;20186;-89
2023/11/28 06:08:24;;;;;;;4.75;3.95;;;6.60;99.90;;;;;;5017860;28;21025;-89
2023/11/28 06:10:50;;;;;;;2.53;1.83;;;6.50;99.90;;;;;;5017231;28;20186;-90
2023/11/28 06:13:16;;;;;;;1.80;1.70;;;6.50;99.90;;;;;;5012779;28;20582;-89
2023/11/28 06:15:42;;;;;;;2.43;2.30;;;6.30;99.90;;;;;;5015000;28;20659;-88
2023/11/28 06:18:09;;;;;;;2.17;1.97;;;6.30;99.90;;;;;;5017377;28;20178;-88
2023/11/28 06:20:35;;;;;;;1.70;1.60;;;6.10;99.90;;;;;;5014395;28;20498;-87
2023/11/28 06:23:00;;;;;;;1.80;1.70;;;6.10;99.90;;;;;;5012405;28;20287;-87
2023/11/28 06:25:26;;;;;;;2.07;1.90;;;6.50;99.90;;;;;;5011325;28;20689;-87
2023/11/28 06:27:51;;;;;;;3.10;2.53;;;6.50;99.90;;;;;;5013415;28;20182;-87
2023/11/28 06:30:17;;;;;;;2.07;1.60;;;6.40;99.90;;;;;;5015733;28;20188;-88
2023/11/28 06:32:43;;;;;;;2.88;1.90;;;6.10;99.90;;;;;;5034836;28;20178;-88
2023/11/28 06:35:10;;;;;;;1.60;1.50;;;6.50;99.90;;;;;;5030613;28;20241;-86
2023/11/28 06:37:36;;;;;;;1.77;1.67;;;6.30;99.90;;;;;;5015099;28;20197;-87
2023/11/28 06:40:02;;;;;;;2.17;2.00;;;6.20;99.90;;;;;;5015701;28;20190;-87
2023/11/28 06:42:28;;;;;;;2.20;2.00;;;;;;;;;;5004848;28;20488;-87
2023/11/28 06:44:54;;;;;;;2.00;1.80;;;6.00;99.90;;;;;;5013591;28;20300;-87
2023/11/28 06:47:19;;;;;;;2.13;2.00;;;6.20;99.90;;;;;;5018688;28;20328;-86
2023/11/28 06:49:45;;;;;;;2.27;2.07;;;6.10;99.90;;;;;;5021736;28;20443;-86
2023/11/28 06:52:11;;;;;;;1.85;1.75;;;6.10;99.90;;;;;;5014802;28;20186;-87
2023/11/28 06:54:37;;;;;;;0.93;0.80;;;6.40;99.90;;;;;;5017743;28;20213;-86
2023/11/28 06:57:02;;;;;;;1.60;1.50;;;5.70;99.90;;;;;;5022514;28;20182;-86
2023/11/28 06:59:28;;;;;;;1.10;1.00;;;5.90;99.90;;;;;;5018467;28;20178;-87
2023/11/28 07:01:54;;;;;;;1.50;0.90;;;;;;;;;;5012182;28;20221;-87
2023/11/28 07:04:19;;;;;;;0.73;0.73;;;5.20;99.90;;;;;;5020131;28;20260;-86
2023/11/28 07:06:45;;;;;;;1.30;1.20;;;;;;;;;;5016986;28;20631;-86
2023/11/28 07:09:11;;;;;;;1.40;1.20;;;5.10;99.90;;;;;;5024604;28;20208;-86
2023/11/28 07:11:37;;;;;;;1.27;1.17;;;;;;;;;;5027795;28;20563;-86
2023/11/28 07:14:03;;;;;;;1.00;1.00;;;5.00;99.90;;;;;;5014170;28;20205;-86
2023/11/28 07:16:28;;;;;;;1.90;1.10;;;;;;;;;;5013824;28;20511;-87
2023/11/28 07:18:54;;;;;;;1.03;0.93;;;5.10;99.90;;;;;;5021783;28;20193;-87
2023/11/28 07:21:20;;;;;;;1.30;1.20;;;5.20;99.90;;;;;;5018994;28;20441;-87
2023/11/28 07:23:45;;;;;;;1.37;1.27;;;5.00;99.90;;;;;;5020095;28;20210;-87
2023/11/28 07:26:12;;;;;;;1.13;1.13;;;4.80;99.90;;;;;;5023685;28;20203;-87
2023/11/28 07:28:38;;;;;;;1.55;1.45;;;4.70;99.90;;;;;;5033460;28;20205;-87
2023/11/28 07:31:04;;;;;;;1.58;1.48;;;4.50;99.90;;;;;;5032860;28;20191;-86
2023/11/28 07:33:30;;;;;;;1.47;1.37;;;4.60;99.90;;;;;;5023194;28;20544;-87
2023/11/28 07:35:55;;;;;;;1.75;1.30;;;5.00;99.90;;;;;;5034809;28;20606;-87
2023/11/28 07:38:21;;;;;;;1.20;1.10;;;4.60;99.90;;;;;;5026350;28;20201;-87
2023/11/28 07:40:48;;;;;;;1.38;1.27;;;5.00;99.90;;;;;;5043728;28;20218;-86
2023/11/28 07:43:14;;;;;;;1.35;1.25;;;4.80;99.90;;;;;;5036686;28;20212;-86
2023/11/28 07:45:40;;;;;;;1.20;1.10;;;5.00;99.90;;;;;;5030328;28;20227;-86
2023/11/28 07:48:06;;;;;;;1.30;1.20;;;4.60;99.90;;;;;;5023297;28;21001;-86
2023/11/28 07:50:31;;;;;;;1.20;1.10;;;4.50;99.90;;;;;;5013166;28;20180;-86
2023/11/28 07:52:57;;;;;;;1.33;1.10;;;4.40;99.90;;;;;;5017068;28;20193;-86
2023/11/28 07:55:23;;;;;;;1.60;1.50;;;4.40;99.90;;;;;;5010906;28;20213;-87
2023/11/28 07:57:49;;;;;;;1.20;1.20;;;4.40;99.90;;;;;;5020174;28;20554;-86
2023/11/28 08:00:15;;;;;;;1.40;1.30;;;4.90;99.90;;;;;;5030240;28;20597;-86
2023/11/28 08:02:41;;;;;;;1.90;1.67;;;4.50;99.90;;;;;;5018473;28;20209;-87
2023/11/28 08:05:07;;;;;;;2.47;2.05;;;4.20;99.90;;;;;;5017898;28;20798;-86
2023/11/28 08:07:35;;;;;;;2.13;1.45;;;4.30;99.90;;;;;;5022567;28;20193;-86
2023/11/28 08:10:05;;;;;;;1.70;1.60;;;4.60;99.90;;;;;;5016023;28;20591;-86
2023/11/28 08:12:30;;;;;;;1.83;1.73;;;4.50;99.90;;;;;;5024113;28;20192;-88
2023/11/28 08:14:57;;;;;;;1.60;1.50;;;4.40;99.90;;;;;;5013562;28;20207;-86
2023/11/28 08:17:22;;;;;;;2.15;2.00;;;4.20;99.90;;;;;;5015217;28;20197;-88
2023/11/28 08:19:49;;;;;;;1.80;1.70;;;4.30;99.90;;;;;;5020331;28;20647;-86
2023/11/28 08:22:14;;;;;;;1.90;1.80;;;4.30;99.90;;;;;;5018143;28;20759;-86
2023/11/28 08:24:40;;;;;;;3.40;2.00;;;4.40;99.90;;;;;;5013795;28;20200;-86
2023/11/28 08:27:05;;;;;;;2.73;2.53;;;4.40;99.90;;;;;;5032262;28;20189;-86
2023/11/28 08:29:31;;;;;;;2.10;2.00;;;4.00;99.90;;;;;;5020078;28;20192;-87
2023/11/28 08:31:58;;;;;;;2.57;2.37;;;4.30;99.90;;;;;;5023951;28;20197;-88
2023/11/28 08:34:24;;;;;;;2.90;2.60;;;4.20;99.90;;;;;;5042091;28;20216;-86
2023/11/28 08:36:50;;;;;;;3.20;3.00;;;4.40;99.90;;;;;;5037897;28;20208;-86
2023/11/28 08:39:16;;;;;;;2.40;2.22;;;4.00;99.90;;;;;;5045338;28;20203;-86
2023/11/28 08:41:42;;;;;;;2.07;1.90;;;4.00;99.90;;;;;;5024886;28;20184;-86
2023/11/28 08:44:08;;;;;;;2.67;2.10;;;5.70;99.90;;;;;;5021970;28;20471;-86
2023/11/28 08:46:35;;;;;;;2.07;1.97;;;4.30;99.90;;;;;;5018949;28;20572;-86
2023/11/28 08:49:01;;;;;;;1.80;1.70;;;4.10;99.90;;;;;;5020374;28;20186;-86
2023/11/28 08:51:26;;;;;;;2.47;2.27;;;4.10;99.90;;;;;;5018348;28;20620;-86
2023/11/28 08:53:52;;;;;;;2.07;1.87;;;4.40;99.90;;;;;;5013394;28;20212;-86
2023/11/28 08:56:17;;;;;;;2.07;1.93;;;4.20;99.90;;;;;;5025777;28;20192;-86
2023/11/28 08:58:43;;;;;;;2.50;1.73;;;4.00;99.90;;;;;;5018615;28;20188;-86
2023/11/28 09:01:08;;;;;;;3.00;1.87;;;4.10;99.90;;;;;;5022350;28;20197;-86
2023/11/28 09:03:34;;;;;;;1.50;1.40;;;4.30;99.90;;;;;;5015026;28;20206;-86
2023/11/28 09:05:59;;;;;;;1.73;1.63;;;4.00;99.90;;;;;;5020347;28;20195;-86
2023/11/28 09:08:25;;;;;;;2.07;1.93;;;3.80;99.90;;;;;;5031073;28;20219;-86
2023/11/28 09:10:51;;;;;;;2.00;1.90;;;4.30;99.90;;;;;;5055754;28;20175;-87
2023/11/28 09:13:16;;;;;;;1.73;1.40;;;4.10;99.90;;;;;;5033658;28;20188;-87
2023/11/28 09:15:43;;;;;;;1.40;1.30;;;4.30;99.90;;;;;;5023787;28;20182;-86
2023/11/28 09:18:08;;;;;;;1.70;1.60;;;3.90;99.90;;;;;;5020806;28;20188;-87
2023/11/28 09:20:34;;;;;;;2.40;1.50;;;4.10;99.90;;;;;;5033051;28;20224;-86
2023/11/28 09:22:59;;;;;;;1.80;1.70;;;4.10;99.90;;;;;;5013427;28;20175;-86
2023/11/28 09:25:25;;;;;;;1.93;1.63;;;4.50;99.90;;;;;;5018039;28;20591;-86
2023/11/28 09:27:50;;;;;;;1.70;1.60;;;4.60;99.90;;;;;;5022853;28;20197;-87
2023/11/28 09:30:19;;;;;;;1.70;1.60;;;4.00;99.90;;;;;;5051330;28;20214;-86
2023/11/28 09:32:44;;;;;;;1.65;1.55;;;4.30;99.90;;;;;;5038181;28;20193;-86
2023/11/28 09:35:10;;;;;;;1.50;1.40;;;4.60;99.90;;;;;;5039023;28;20222;-86
2023/11/28 09:37:35;;;;;;;2.30;1.60;;;4.20;99.90;;;;;;5049172;22;20239;-88
2023/11/28 09:40:05;;;;;;;2.53;1.80;;;4.30;99.90;;;;;;5038668;28;20219;-88
2023/11/28 09:42:34;;;;;;;1.75;1.65;;;4.40;99.90;;;;;;5037410;28;20176;-88
2023/11/28 09:45:04;;;;;;;1.48;1.38;;;4.30;99.90;;;;;;5043398;28;20212;-88
2023/11/28 09:47:38;;;;;;;1.42;1.33;;;4.20;99.90;;;;;;5035790;28;20182;-89
2023/11/28 09:50:12;;;;;;;1.73;1.63;;;4.20;99.90;;;;;;5030753;28;20254;-88
2023/11/28 09:52:42;;;;;;;2.00;1.90;;;4.00;99.90;;;;;;5030078;28;20211;-89
2023/11/28 09:55:08;;;;;;;1.65;1.55;;;;;;;;;;5022352;28;20212;-88
2023/11/28 09:57:41;;;;;;;2.00;1.80;;;4.00;99.90;;;;;;5049765;28;20177;-88
2023/11/28 10:00:11;;;;;;;1.40;1.30;;;4.10;99.90;;;;;;5019406;28;20272;-88
2023/11/28 10:02:37;;;;;;;1.70;1.60;;;;;;;;;;5016287;28;20546;-88
2023/11/28 10:05:03;;;;;;;1.60;1.50;;;;;;;;;;5018176;28;20234;-89
2023/11/28 10:07:35;;;;;;;1.70;1.60;;;4.20;99.90;;;;;;5015239;28;20183;-88
2023/11/28 10:10:07;;;;;;;1.65;1.55;;;4.10;99.90;;;;;;5020426;28;20371;-88
2023/11/28 10:12:33;;;;;;;1.80;1.70;;;;;;;;;;5015331;28;20527;-88
2023/11/28 10:14:59;;;;;;;2.00;1.80;;;;;;;;;;5021188;28;20219;-88
2023/11/28 10:17:25;;;;;;;1.80;1.70;;;;;;;;;;5020167;28;20184;-90
2023/11/28 10:19:51;;;;;;;2.00;1.90;;;;;;;;;;5017123;28;20192;-89
2023/11/28 10:22:17;;;;;;;1.70;1.60;;;;;;;;;;5019237;28;20322;-88
2023/11/28 10:24:43;;;;;;;1.73;1.63;;;;;;;;;;5019919;28;20211;-88
2023/11/28 10:27:13;;;;;;;2.20;1.65;;;4.30;99.90;;;;;;5022400;28;20643;-88
2023/11/28 10:29:39;;;;;;;1.63;1.52;;;;;;;;;;5014464;28;20276;-90
2023/11/28 10:32:15;;;;;;;1.80;1.70;;;2.60;99.90;;;;;;5011177;28;20594;-88
2023/11/28 10:34:56;;;;;;;2.20;2.00;;;4.30;99.90;;;;;;5014428;28;20212;-89
2023/11/28 10:37:22;;;;;;;1.75;1.65;;;;;;;;;;5019892;28;20285;-89
2023/11/28 10:39:53;;;;;;;3.08;2.88;;;4.20;99.90;;;;;;5013507;28;20185;-90
2023/11/28 10:42:20;;;;;;;2.10;2.00;;;4.30;99.90;;;;;;5019304;28;20207;-88
2023/11/28 10:44:46;;;;;;;2.70;2.50;;;;;;;;;;5024495;28;20207;-88
2023/11/28 10:47:16;;;;;;;3.05;2.75;;;4.40;99.90;;;;;;5023296;28;20254;-89
2023/11/28 10:49:44;;;;;;;2.55;2.35;;;;;;;;;;5025874;28;20207;-88
2023/11/28 10:52:18;;;;;;;3.70;2.40;;;4.40;99.90;;;;;;5018844;28;20188;-89
2023/11/28 10:54:59;;;;;;;2.33;2.22;;;5.10;99.90;;;;;;5002001;28;20297;-90
2023/11/28 10:57:28;;;;;;;2.38;2.28;;;4.30;99.90;;;;;;5025885;28;20185;-88
2023/11/28 11:00:09;;;;;;;2.22;2.03;;;5.10;99.90;;;;;;5020095;28;20236;-90
2023/11/28 11:02:35;;;;;;;2.40;2.20;;;4.00;99.90;;;;;;4996548;28;20709;-88
2023/11/28 11:05:23;;;;;;;2.40;2.30;;;4.30;99.90;;;;;;5036637;28;20562;-88
2023/11/28 11:07:50;;;;;;;2.40;2.30;;;;;;;;;;5013645;28;20614;-88
2023/11/28 11:10:33;;;;;;;2.85;2.65;;;4.00;99.90;;;;;;5000386;28;20240;-89
2023/11/28 11:13:24;;;;;;;2.88;2.67;;;3.80;99.90;;;;;;5019743;28;20191;-89
2023/11/28 11:16:33;;;;;;;2.63;2.42;;;3.70;99.90;;;;;;5019970;28;20714;-88
2023/11/28 11:19:01;;;;;;;3.20;3.00;;;3.70;99.90;;;;;;5012544;28;20587;-89
2023/11/28 11:21:56;;;;;;;3.63;3.15;;;3.60;99.90;;;;;;4986204;28;20196;-89
2023/11/28 11:24:22;;;;;;;2.53;2.33;;;;;;;;;;5014303;28;20215;-90
2023/11/28 11:26:49;;;;;;;2.70;2.50;;;3.60;99.90;;;;;;5022895;28;20195;-89
2023/11/28 11:29:27;;;;;;;3.15;2.95;;;3.80;99.90;;;;;;5020568;28;20187;-88
2023/11/28 11:31:56;;;;;;;2.85;2.65;;;3.80;99.90;;;;;;5021876;28;20188;-88
2023/11/28 11:34:52;;;;;;;3.38;3.05;;;3.60;99.90;;;;;;5018755;28;20639;-88
2023/11/28 11:37:18;;;;;;;3.17;2.88;;;;;;;;;;5022297;28;20381;-88
2023/11/28 11:39:48;;;;;;;3.35;3.05;;;3.60;99.90;;;;;;5039146;28;20192;-89
2023/11/28 11:42:20;;;;;;;3.58;3.22;;;3.60;99.90;;;;;;5026176;28;20198;-90
2023/11/28 11:45:00;;;;;;;3.30;3.10;;;5.20;99.90;;;;;;5022841;28;20675;-89
2023/11/28 11:47:28;;;;;;;2.72;2.53;;;3.40;99.90;;;;;;5020070;28;20183;-89
2023/11/28 11:49:57;;;;;;;2.35;2.25;;;3.40;99.90;;;;;;5017859;28;20185;-89
2023/11/28 11:52:32;;;;;;;3.90;3.20;;;6.70;99.90;;;;;;5020115;28;20179;-89
2023/11/28 11:55:09;;;;;;;3.95;3.65;;;3.30;99.90;;;;;;5027019;28;20357;-90
2023/11/28 11:57:35;;;;;;;2.78;2.58;;;3.70;99.90;;;;;;5039181;28;20233;-88
2023/11/28 12:00:15;;;;;;;3.30;2.90;;;3.90;99.90;;;;;;5021965;28;20207;-89
2023/11/28 12:02:44;;;;;;;3.00;2.80;;;3.80;99.90;;;;;;5021268;28;20267;-89
2023/11/28 12:05:13;;;;;;;3.45;3.15;;;;;;;;;;5034881;28;20261;-88
2023/11/28 12:07:43;;;;;;;3.60;3.30;;;;;;;;;;5010798;28;20192;-88
2023/11/28 12:10:12;;;;;;;3.20;2.90;;;3.80;99.90;;;;;;5016382;28;20308;-88
2023/11/28 12:12:40;;;;;;;3.20;2.90;;;3.90;99.90;;;;;;5016481;28;20380;-88
2023/11/28 12:15:06;;;;;;;4.00;3.50;;;4.10;99.90;;;;;;5013716;28;20302;-88
2023/11/28 12:17:35;;;;;;;3.40;3.15;;;3.80;99.90;;;;;;5038177;28;20268;-88
2023/11/28 12:20:04;;;;;;;3.05;2.85;;;3.80;99.90;;;;;;5025811;28;20192;-89
2023/11/28 12:22:34;;;;;;;3.70;3.35;;;;;;;;;;5039070;28;20192;-89
2023/11/28 12:25:00;;;;;;;3.33;3.03;;;;;;;;;;5021969;28;20213;-89
2023/11/28 12:27:26;;;;;;;3.60;3.30;;;;;;;;;;5030497;28;20183;-88
2023/11/28 12:29:53;;;;;;;3.72;3.42;;;3.70;99.90;;;;;;5031436;28;20192;-88
2023/11/28 12:32:22;;;;;;;3.92;3.63;;;2.20;99.90;;;;;;5018018;28;20280;-89
2023/11/28 12:34:52;;;;;;;4.30;3.90;;;4.00;99.90;;;;;;5040442;28;20229;-89
2023/11/28 12:37:21;;;;;;;4.97;4.47;;;3.70;99.90;;;;;;5018314;28;20196;-88
2023/11/28 12:39:47;;;;;;;4.40;4.00;;;;;;;;;;5014211;28;20239;-88
2023/11/28 12:42:14;;;;;;;4.90;4.45;;;;;;;;;;5004175;28;20188;-88
2023/11/28 12:44:40;;;;;;;4.60;3.95;;;;;;;;;;5018825;28;20581;-88
2023/11/28 12:47:12;;;;;;;5.80;4.60;;;;;;;;;;5019104;28;20222;-89
2023/11/28 12:49:40;;;;;;;4.90;4.50;;;3.50;99.90;;;;;;5013729;28;20215;-89
2023/11/28 12:52:08;;;;;;;5.32;4.93;;;3.70;99.90;;;;;;5015139;28;20192;-89
2023/11/28 12:54:34;;;;;;;4.95;4.55;;;;;;;;;;5021208;28;20285;-88
2023/11/28 12:57:01;;;;;;;8.15;7.35;;;;;;;;;;5041928;28;20239;-89
2023/11/28 12:59:28;;;;;;;6.25;5.30;;;;;;;;;;5019806;28;20219;-88
2023/11/28 13:01:55;;;;;;;5.13;4.72;;;;;;;;;;5016514;28;20646;-88
2023/11/28 13:04:22;;;;;;;5.28;4.80;;;3.70;99.90;;;;;;5015818;28;20208;-89
2023/11/28 13:06:50;;;;;;;5.25;4.75;;;5.00;99.90;;;;;;5012065;28;20265;-88
2023/11/28 13:09:18;;;;;;;5.28;4.78;;;;;;;;;;5015579;28;20189;-88
2023/11/28 13:11:44;;;;;;;5.30;4.90;;;;;;;;;;5013757;28;20198;-89
2023/11/28 13:14:10;;;;;;;6.10;5.50;;;;;;;;;;5013393;28;20274;-88
2023/11/28 13:16:36;;;;;;;5.25;4.75;;;;;;;;;;5014111;28;20221;-88